createdAt,value
2019-05-25T00:01:42.071Z,83.41
2019-05-25T00:04:13.667Z,83.30
2019-05-25T00:06:45.755Z,83.49
2019-05-25T00:09:18.502Z,83.14
2019-05-25T00:11:50.361Z,83.91
2019-05-25T00:14:23.305Z,83.29
2019-05-25T00:16:55.807Z,83.84
2019-05-25T00:19:28.472Z,83.38
2019-05-25T00:22:01.023Z,83.36
2019-05-25T00:24:33.870Z,83.12
2019-05-25T00:27:06.449Z,83.12
2019-05-25T00:29:38.408Z,83.22
2019-05-25T00:32:10.623Z,83.22
2019-05-25T00:34:56.062Z,82.86
2019-05-25T00:37:27.946Z,82.96
2019-05-25T00:40:01.745Z,82.08
2019-05-25T00:42:36.580Z,81.71
2019-05-25T00:45:08.521Z,82.34
2019-05-25T00:47:40.939Z,82.62
2019-05-25T00:50:13.588Z,81.66
2019-05-25T00:52:45.973Z,81.90
2019-05-25T00:55:17.984Z,80.66
2019-05-25T00:57:49.589Z,80.68
2019-05-25T01:00:23.029Z,80.45
2019-05-25T01:02:55.024Z,80.06
2019-05-25T01:05:26.690Z,79.95
2019-05-25T01:07:59.128Z,79.94
2019-05-25T01:10:36.147Z,79.76
2019-05-25T01:13:08.577Z,80.10
2019-05-25T01:15:40.922Z,79.97
2019-05-25T01:18:12.391Z,80.66
2019-05-25T01:20:45.043Z,80.17
2019-05-25T01:23:17.564Z,79.73
2019-05-25T01:25:50.125Z,79.72
2019-05-25T01:28:22.278Z,79.86
2019-05-25T01:30:54.543Z,79.83
2019-05-25T01:33:27.250Z,80.36
2019-05-25T01:35:59.924Z,79.84
2019-05-25T01:38:32.089Z,80.01
2019-05-25T01:41:04.177Z,80.05
2019-05-25T01:43:35.706Z,80.37
2019-05-25T01:46:07.953Z,79.64
2019-05-25T01:48:40.397Z,79.32
2019-05-25T01:51:12.078Z,79.09
2019-05-25T01:53:44.757Z,78.85
2019-05-25T01:56:16.889Z,78.85
2019-05-25T01:58:49.167Z,78.76
2019-05-25T02:01:21.315Z,78.92
2019-05-25T02:03:52.921Z,79.07
2019-05-25T02:06:25.533Z,78.67
2019-05-25T02:08:57.963Z,79.07
2019-05-25T02:11:30.450Z,79.52
2019-05-25T02:14:02.910Z,79.55
2019-05-25T02:16:34.424Z,79.45
2019-05-25T02:19:07.010Z,79.25
2019-05-25T02:21:39.597Z,79.63
2019-05-25T02:24:11.303Z,79.73
2019-05-25T02:26:43.830Z,79.79
2019-05-25T02:29:15.499Z,79.73
2019-05-25T02:31:47.467Z,79.35
2019-05-25T02:34:19.526Z,80.01
2019-05-25T02:36:52.303Z,79.80
2019-05-25T02:39:24.828Z,80.28
2019-05-25T02:41:57.294Z,80.03
2019-05-25T02:44:29.917Z,79.84
2019-05-25T02:47:02.590Z,79.75
2019-05-25T02:49:34.105Z,79.93
2019-05-25T02:52:06.578Z,80.06
2019-05-25T02:54:38.987Z,79.94
2019-05-25T02:57:11.356Z,80.33
2019-05-25T02:59:43.779Z,79.87
2019-05-25T03:02:15.351Z,79.83
2019-05-25T03:04:47.999Z,79.44
2019-05-25T03:07:21.616Z,79.76
2019-05-25T03:09:54.574Z,79.64
2019-05-25T03:12:27.301Z,79.09
2019-05-25T03:14:59.764Z,79.02
2019-05-25T03:17:32.306Z,79.29
2019-05-25T03:20:04.870Z,79.19
2019-05-25T03:22:37.126Z,78.90
2019-05-25T03:25:09.658Z,78.96
2019-05-25T03:27:41.914Z,79.00
2019-05-25T03:30:15.912Z,78.71
2019-05-25T03:32:48.922Z,78.63
2019-05-25T03:35:20.692Z,78.46
2019-05-25T03:37:53.401Z,78.68
2019-05-25T03:40:25.594Z,78.53
2019-05-25T03:42:57.407Z,78.46
2019-05-25T03:45:29.659Z,78.42
2019-05-25T03:48:02.016Z,78.37
2019-05-25T03:50:34.599Z,78.33
2019-05-25T03:53:07.197Z,78.24
2019-05-25T03:55:39.320Z,78.40
2019-05-25T03:58:11.886Z,78.67
2019-05-25T04:00:44.448Z,78.00
2019-05-25T04:03:17.195Z,78.36
2019-05-25T04:05:49.782Z,78.30
2019-05-25T04:08:22.950Z,77.64
2019-05-25T04:10:55.197Z,78.23
2019-05-25T04:13:27.832Z,77.45
2019-05-25T04:16:01.859Z,77.70
2019-05-25T04:18:34.511Z,77.17
2019-05-25T04:21:06.434Z,77.62
2019-05-25T04:23:38.367Z,76.80
2019-05-25T04:26:21.864Z,76.78
2019-05-25T04:28:43.984Z,77.19
2019-05-25T04:31:17.456Z,76.99
2019-05-25T04:33:49.935Z,76.87
2019-05-25T04:36:22.200Z,76.42
2019-05-25T04:38:54.436Z,76.65
2019-05-25T04:41:26.135Z,76.05
2019-05-25T04:43:58.551Z,75.67
2019-05-25T04:46:30.976Z,75.53
2019-05-25T04:49:05.519Z,75.59
2019-05-25T04:51:37.876Z,75.65
2019-05-25T04:54:10.217Z,74.98
2019-05-25T04:56:42.301Z,74.94
2019-05-25T04:59:14.704Z,75.15
2019-05-25T05:01:46.840Z,75.19
2019-05-25T05:04:36.205Z,75.54
2019-05-25T05:07:08.295Z,74.04
2019-05-25T05:09:39.933Z,73.65
2019-05-25T05:12:12.097Z,74.05
2019-05-25T05:14:56.486Z,73.60
2019-05-25T05:17:28.742Z,73.90
2019-05-25T05:20:01.129Z,72.80
2019-05-25T05:22:32.746Z,73.45
2019-05-25T05:25:16.402Z,73.05
2019-05-25T05:27:48.799Z,72.82
2019-05-25T05:30:24.430Z,72.98
2019-05-25T05:32:56.942Z,72.22
2019-05-25T05:35:29.829Z,72.44
2019-05-25T05:38:06.851Z,71.92
2019-05-25T05:40:42.806Z,72.77
2019-05-25T05:43:16.976Z,72.94
2019-05-25T05:45:51.304Z,72.91
2019-05-25T05:48:26.535Z,72.56
2019-05-25T05:51:01.035Z,72.26
2019-05-25T05:53:37.049Z,71.82
2019-05-25T05:56:08.508Z,72.47
2019-05-25T05:58:44.150Z,72.24
2019-05-25T06:01:16.232Z,72.38
2019-05-25T06:03:48.133Z,72.87
2019-05-25T06:06:20.563Z,72.25
2019-05-25T06:09:53.040Z,72.45
2019-05-25T06:12:25.266Z,72.48
2019-05-25T06:15:02.501Z,71.18
2019-05-25T06:17:35.108Z,70.65
2019-05-25T06:20:10.820Z,70.75
2019-05-25T06:22:43.053Z,71.42
2019-05-25T06:25:16.318Z,69.94
2019-05-25T06:27:49.157Z,68.40
2019-05-25T06:30:22.729Z,69.01
2019-05-25T06:32:54.266Z,69.81
2019-05-25T06:35:26.981Z,68.57
2019-05-25T06:37:59.424Z,68.51
2019-05-25T06:40:32.059Z,67.51
2019-05-25T06:43:06.523Z,68.87
2019-05-25T06:45:38.145Z,68.85
2019-05-25T06:48:12.148Z,68.40
2019-05-25T06:50:44.667Z,68.93
2019-05-25T06:53:16.498Z,69.08
2019-05-25T06:55:48.749Z,68.12
2019-05-25T06:58:20.959Z,67.80
2019-05-25T07:01:04.356Z,68.19
2019-05-25T07:03:57.887Z,68.23
2019-05-25T07:06:30.779Z,69.05
2019-05-25T07:09:03.723Z,68.22
2019-05-25T07:11:38.872Z,68.16
2019-05-25T07:14:10.735Z,67.73
2019-05-25T07:16:43.055Z,69.19
2019-05-25T07:19:16.818Z,68.18
2019-05-25T07:21:50.257Z,67.30
2019-05-25T07:24:29.908Z,66.96
2019-05-25T07:27:01.576Z,66.07
2019-05-25T07:29:54.018Z,66.21
2019-05-25T07:32:26.163Z,64.18
2019-05-25T07:34:58.592Z,65.29
2019-05-25T07:37:30.954Z,65.05
2019-05-25T07:40:04.779Z,66.22
2019-05-25T07:42:37.298Z,65.77
2019-05-25T07:45:21.851Z,64.98
2019-05-25T07:47:52.589Z,64.37
2019-05-25T07:50:24.984Z,65.15
2019-05-25T07:52:57.340Z,61.90
2019-05-25T07:55:31.791Z,60.74
2019-05-25T07:58:32.325Z,61.73
2019-05-25T08:01:06.772Z,61.30
2019-05-25T08:03:40.055Z,60.17
2019-05-25T08:06:18.444Z,56.90
2019-05-25T08:08:54.679Z,54.29
2019-05-25T08:11:26.349Z,53.90
2019-05-25T08:13:58.881Z,54.79
2019-05-25T08:16:30.547Z,53.32
2019-05-25T08:19:03.065Z,51.20
2019-05-25T08:21:35.356Z,54.23
2019-05-25T08:24:07.654Z,50.45
2019-05-25T08:26:40.145Z,52.91
2019-05-25T08:29:12.359Z,52.16
2019-05-25T08:31:44.827Z,52.15
2019-05-25T08:34:17.321Z,50.11
2019-05-25T08:36:49.049Z,50.94
2019-05-25T08:39:22.354Z,54.27
2019-05-25T08:41:54.865Z,51.75
2019-05-25T08:44:27.086Z,53.43
2019-05-25T08:46:59.645Z,54.13
2019-05-25T08:49:32.174Z,54.25
2019-05-25T08:52:04.368Z,52.94
2019-05-25T08:54:36.554Z,49.01
2019-05-25T08:57:08.935Z,50.94
2019-05-25T08:59:42.182Z,51.61
2019-05-25T09:02:18.148Z,51.46
2019-05-25T09:04:50.717Z,50.81
2019-05-25T09:07:23.286Z,52.19
2019-05-25T09:09:58.236Z,55.11
2019-05-25T09:12:31.121Z,54.82
2019-05-25T09:15:06.033Z,54.77
2019-05-25T09:17:41.493Z,55.39
2019-05-25T09:20:16.251Z,55.35
2019-05-25T09:22:49.385Z,57.26
2019-05-25T09:25:27.579Z,56.01
2019-05-25T09:28:00.247Z,56.40
2019-05-25T09:30:32.429Z,59.65
2019-05-25T09:33:09.391Z,59.21
2019-05-25T09:35:42.223Z,58.67
2019-05-25T09:38:14.496Z,60.43
2019-05-25T09:40:46.853Z,60.86
2019-05-25T09:43:21.924Z,60.97
2019-05-25T09:45:54.759Z,61.33
2019-05-25T09:48:27.136Z,62.14
2019-05-25T09:51:00.562Z,63.93
2019-05-25T09:53:37.455Z,64.35
2019-05-25T09:56:09.776Z,66.49
2019-05-25T09:58:44.758Z,66.87
2019-05-25T10:01:17.131Z,68.37
2019-05-25T10:03:49.180Z,69.71
2019-05-25T10:06:23.142Z,74.52
2019-05-25T10:08:57.824Z,74.36
2019-05-25T10:11:37.711Z,75.60
2019-05-25T10:14:12.232Z,73.77
2019-05-25T10:16:50.412Z,73.33
2019-05-25T10:19:23.613Z,72.42
2019-05-25T10:22:06.600Z,74.34
2019-05-25T10:24:47.047Z,72.64
2019-05-25T10:27:25.353Z,68.80
2019-05-25T10:30:07.868Z,68.48
2019-05-25T10:32:41.843Z,70.09
2019-05-25T10:35:15.824Z,71.28
2019-05-25T10:38:02.171Z,71.76
2019-05-25T10:40:50.127Z,72.25
2019-05-25T10:43:27.480Z,72.39
2019-05-25T10:46:05.263Z,73.10
2019-05-25T10:48:48.101Z,71.82
2019-05-25T10:51:33.739Z,72.10
2019-05-25T10:54:21.921Z,72.08
2019-05-25T10:57:03.868Z,74.34
2019-05-25T10:59:52.375Z,73.40
2019-05-25T11:02:27.384Z,75.78
2019-05-25T11:05:12.488Z,75.53
2019-05-25T11:07:53.396Z,76.01
2019-05-25T11:10:35.755Z,77.12
2019-05-25T11:13:11.941Z,77.15
2019-05-25T11:15:55.711Z,76.36
2019-05-25T11:18:33.035Z,77.33
2019-05-25T11:21:11.369Z,76.35
2019-05-25T11:23:47.576Z,75.44
2019-05-25T11:26:19.309Z,74.03
2019-05-25T11:28:51.829Z,74.70
2019-05-25T11:31:27.196Z,77.06
2019-05-25T11:34:05.760Z,78.78
2019-05-25T11:36:57.554Z,80.36
2019-05-25T11:39:32.508Z,79.42
2019-05-25T11:42:09.963Z,80.91
2019-05-25T11:44:53.331Z,81.64
2019-05-25T11:47:25.931Z,82.77
2019-05-25T11:49:58.647Z,82.48
2019-05-25T11:52:30.814Z,82.78
2019-05-25T11:55:02.810Z,82.69
2019-05-25T11:57:35.325Z,81.39
2019-05-25T12:00:23.808Z,80.12
2019-05-25T12:02:51.096Z,79.92
2019-05-25T12:05:23.349Z,80.20
2019-05-25T12:07:57.091Z,80.65
2019-05-25T12:10:29.570Z,80.05
2019-05-25T12:13:01.770Z,78.31
2019-05-25T12:15:34.418Z,78.03
2019-05-25T12:18:07.001Z,77.77
2019-05-25T12:20:40.384Z,76.79
2019-05-25T12:23:12.577Z,76.26
2019-05-25T12:25:45.094Z,74.54
2019-05-25T12:28:16.783Z,74.96
2019-05-25T12:30:49.511Z,72.05
2019-05-25T12:33:21.133Z,72.63
2019-05-25T12:35:53.546Z,72.32
2019-05-25T12:38:25.849Z,71.91
2019-05-25T12:40:57.505Z,71.19
2019-05-25T12:43:29.564Z,69.24
2019-05-25T12:46:12.635Z,68.58
2019-05-25T12:48:44.840Z,67.67
2019-05-25T12:51:17.971Z,69.56
2019-05-25T12:53:50.642Z,70.52
2019-05-25T12:56:23.150Z,70.74
2019-05-25T12:58:57.941Z,69.40
2019-05-25T13:01:29.631Z,69.56
2019-05-25T13:04:02.228Z,70.45
2019-05-25T13:06:35.437Z,71.40
2019-05-25T13:09:10.047Z,70.76
2019-05-25T13:11:42.398Z,70.65
2019-05-25T13:14:15.291Z,70.96
2019-05-25T13:16:47.400Z,70.20
2019-05-25T13:19:19.484Z,68.79
2019-05-25T13:21:51.945Z,68.96
2019-05-25T13:24:24.366Z,67.99
2019-05-25T13:26:55.959Z,67.36
2019-05-25T13:29:28.308Z,66.80
2019-05-25T13:32:00.845Z,66.78
2019-05-25T13:34:32.562Z,63.11
2019-05-25T13:37:04.792Z,60.61
2019-05-25T13:39:37.079Z,61.49
2019-05-25T13:42:09.341Z,62.65
2019-05-25T13:44:44.211Z,64.06
2019-05-25T13:47:16.794Z,66.15
2019-05-25T13:49:48.926Z,68.54
2019-05-25T13:52:20.990Z,69.79
2019-05-25T13:54:53.414Z,68.06
2019-05-25T13:57:25.563Z,70.86
2019-05-25T13:59:57.292Z,68.46
2019-05-25T14:02:30.025Z,68.76
2019-05-25T14:05:05.599Z,68.09
2019-05-25T14:07:37.354Z,68.30
2019-05-25T14:10:10.531Z,70.89
2019-05-25T14:12:42.725Z,70.32
2019-05-25T14:15:15.382Z,71.14
2019-05-25T14:17:47.976Z,71.85
2019-05-25T14:20:20.247Z,71.52
2019-05-25T14:22:52.542Z,73.14
2019-05-25T14:25:25.044Z,71.59
2019-05-25T14:27:57.258Z,71.88
2019-05-25T14:30:29.759Z,72.52
2019-05-25T14:33:01.494Z,73.73
2019-05-25T14:35:35.297Z,74.09
2019-05-25T14:38:08.005Z,73.73
2019-05-25T14:40:40.507Z,72.76
2019-05-25T14:43:16.036Z,72.66
2019-05-25T14:45:53.074Z,73.77
2019-05-25T14:48:24.116Z,74.19
2019-05-25T14:50:56.524Z,74.98
2019-05-25T14:53:28.129Z,74.65
2019-05-25T14:56:00.852Z,76.73
2019-05-25T14:58:33.304Z,74.90
2019-05-25T15:01:06.762Z,75.25
2019-05-25T15:03:40.388Z,75.06
2019-05-25T15:06:12.882Z,75.66
2019-05-25T15:08:44.971Z,74.53
2019-05-25T15:11:21.887Z,74.57
2019-05-25T15:13:54.289Z,75.68
2019-05-25T15:16:26.455Z,76.28
2019-05-25T15:18:59.204Z,76.21
2019-05-25T15:21:31.773Z,76.53
2019-05-25T15:24:04.649Z,75.18
2019-05-25T15:26:36.700Z,74.66
2019-05-25T15:29:11.502Z,73.62
2019-05-25T15:31:45.956Z,74.05
2019-05-25T15:34:18.588Z,75.19
2019-05-25T15:36:54.455Z,75.09
2019-05-25T15:39:31.251Z,74.81
2019-05-25T15:42:15.193Z,73.24
2019-05-25T15:44:51.157Z,74.24
2019-05-25T15:47:23.816Z,74.57
2019-05-25T15:50:13.486Z,74.61
2019-05-25T15:52:46.083Z,76.74
2019-05-25T15:55:28.600Z,76.80
2019-05-25T15:58:03.150Z,76.23
2019-05-25T16:00:55.923Z,73.32
2019-05-25T16:03:55.935Z,72.18
2019-05-25T16:06:36.192Z,71.69
2019-05-25T16:09:14.432Z,72.43
2019-05-25T16:11:51.292Z,69.56
2019-05-25T16:14:28.454Z,70.47
2019-05-25T16:17:01.818Z,69.47
2019-05-25T16:20:08.471Z,70.85
2019-05-25T16:23:29.983Z,72.70
2019-05-25T16:25:30.449Z,72.16
2019-05-25T16:28:11.196Z,71.38
2019-05-25T16:30:56.104Z,72.37
2019-05-25T16:33:54.410Z,72.56
2019-05-25T16:40:01.576Z,74.43
2019-05-25T16:43:06.807Z,73.25
2019-05-25T16:50:03.586Z,71.87
2019-05-25T16:56:11.075Z,70.21
2019-05-25T16:59:10.049Z,70.16
2019-05-25T17:02:31.105Z,69.81
2019-05-25T17:04:17.968Z,70.35
2019-05-25T17:06:50.564Z,70.70
2019-05-25T17:09:23.074Z,70.64
2019-05-25T17:11:55.797Z,70.60
2019-05-25T17:14:27.437Z,70.44
2019-05-25T17:16:59.960Z,70.42
2019-05-25T17:19:32.433Z,70.66
2019-05-25T17:22:06.221Z,71.22
2019-05-25T17:24:40.872Z,71.63
2019-05-25T17:27:13.557Z,71.83
2019-05-25T17:29:46.015Z,71.79
2019-05-25T17:32:21.190Z,71.09
2019-05-25T17:34:59.880Z,71.46
2019-05-25T17:37:35.283Z,72.57
2019-05-25T17:40:06.640Z,70.65
2019-05-25T17:42:41.544Z,70.61
2019-05-25T17:45:14.235Z,70.48
2019-05-25T17:47:46.027Z,69.95
2019-05-25T17:50:18.217Z,69.87
2019-05-25T17:52:50.604Z,70.31
2019-05-25T17:55:22.320Z,70.36
2019-05-25T17:57:59.665Z,71.11
2019-05-25T18:00:41.446Z,71.04
2019-05-25T18:03:16.596Z,70.30
2019-05-25T18:05:49.779Z,69.93
2019-05-25T18:08:21.586Z,69.48
2019-05-25T18:10:54.823Z,69.13
2019-05-25T18:13:30.821Z,70.54
2019-05-25T18:16:06.898Z,71.57
2019-05-25T18:18:52.414Z,71.43
2019-05-25T18:21:28.779Z,70.71
2019-05-25T18:24:05.616Z,69.94
2019-05-25T18:26:45.071Z,71.41
2019-05-25T18:29:44.865Z,71.74
2019-05-25T18:32:53.553Z,71.92
2019-05-25T18:35:36.788Z,72.47
2019-05-25T18:38:19.684Z,72.68
2019-05-25T18:41:06.391Z,72.35
2019-05-25T18:43:48.689Z,71.90
2019-05-25T18:46:23.708Z,72.27
2019-05-25T18:48:57.759Z,72.32
2019-05-25T18:51:37.308Z,72.76
2019-05-25T18:54:14.153Z,72.69
2019-05-25T18:56:48.827Z,73.43
2019-05-25T18:59:27.141Z,73.97
2019-05-25T19:02:02.070Z,73.95
2019-05-25T19:04:44.908Z,73.27
2019-05-25T19:07:25.155Z,73.92
2019-05-25T19:09:59.745Z,74.38
2019-05-25T19:12:36.477Z,73.71
2019-05-25T19:15:10.042Z,75.28
2019-05-25T19:17:42.286Z,74.52
2019-05-25T19:20:20.728Z,74.82
2019-05-25T19:22:48.806Z,75.37
2019-05-25T19:25:43.554Z,75.35
2019-05-25T19:28:15.982Z,76.32
2019-05-25T19:30:50.598Z,76.68
2019-05-25T19:33:23.255Z,77.02
2019-05-25T19:35:58.424Z,76.95
2019-05-25T19:38:41.803Z,76.56
2019-05-25T19:41:14.496Z,77.61
2019-05-25T19:43:48.441Z,76.54
2019-05-25T19:46:21.440Z,77.54
2019-05-25T19:49:06.072Z,77.07
2019-05-25T19:51:38.671Z,76.44
2019-05-25T19:54:14.487Z,76.17
2019-05-25T19:56:46.799Z,76.02
2019-05-25T19:59:18.711Z,75.76
2019-05-25T20:01:56.387Z,77.34
2019-05-25T20:04:31.962Z,78.30
2019-05-25T20:07:03.959Z,77.49
2019-05-25T20:09:36.336Z,77.40
2019-05-25T20:12:08.012Z,77.32
2019-05-25T20:14:43.167Z,77.27
2019-05-25T20:17:20.488Z,77.83
2019-05-25T20:19:53.555Z,77.31
2019-05-25T20:22:25.680Z,77.10
2019-05-25T20:24:57.502Z,77.21
2019-05-25T20:27:29.677Z,76.75
2019-05-25T20:30:01.855Z,76.88
2019-05-25T20:32:35.892Z,77.31
2019-05-25T20:35:13.104Z,77.20
2019-05-25T20:37:45.725Z,77.22
2019-05-25T20:40:18.107Z,77.36
2019-05-25T20:42:50.265Z,78.93
2019-05-25T20:45:21.960Z,77.51
2019-05-25T20:47:54.074Z,77.94
2019-05-25T20:50:26.641Z,77.65
2019-05-25T20:52:59.083Z,77.36
2019-05-25T20:55:31.867Z,76.91
2019-05-25T20:58:06.750Z,76.12
2019-05-25T21:00:38.906Z,76.89
2019-05-25T21:03:11.309Z,75.29
2019-05-25T21:05:50.317Z,75.55
2019-05-25T21:08:33.606Z,74.15
2019-05-25T21:11:05.935Z,74.53
2019-05-25T21:13:38.420Z,74.73
2019-05-25T21:16:10.919Z,74.55
2019-05-25T21:18:42.475Z,73.78
2019-05-25T21:21:14.917Z,73.70
2019-05-25T21:23:47.012Z,73.29
2019-05-25T21:26:18.488Z,72.36
2019-05-25T21:28:52.566Z,72.22
2019-05-25T21:31:24.642Z,72.25
2019-05-25T21:33:57.095Z,72.26
2019-05-25T21:36:29.447Z,73.13
2019-05-25T21:39:01.138Z,73.80
2019-05-25T21:41:33.272Z,73.08
2019-05-25T21:44:06.083Z,73.17
2019-05-25T21:46:38.621Z,73.35
2019-05-25T21:49:10.664Z,73.25
2019-05-25T21:51:42.388Z,73.49
2019-05-25T21:54:14.583Z,73.48
2019-05-25T21:56:47.224Z,74.40
2019-05-25T21:59:19.825Z,74.19
2019-05-25T22:01:51.863Z,74.67
2019-05-25T22:04:23.622Z,75.87
2019-05-25T22:06:56.201Z,75.17
2019-05-25T22:09:28.832Z,77.12
2019-05-25T22:12:00.333Z,77.05
2019-05-25T22:14:34.207Z,77.09
2019-05-25T22:17:06.589Z,77.41
2019-05-25T22:19:39.252Z,77.31
2019-05-25T22:22:11.550Z,77.37
2019-05-25T22:24:43.359Z,77.87
2019-05-25T22:27:15.852Z,77.99
2019-05-25T22:29:48.026Z,78.11
2019-05-25T22:32:19.930Z,78.01
2019-05-25T22:34:52.112Z,77.87
2019-05-25T22:37:24.346Z,77.96
2019-05-25T22:39:56.672Z,77.77
2019-05-25T22:42:31.846Z,78.61
2019-05-25T22:45:03.423Z,77.04
2019-05-25T22:47:36.916Z,77.17
2019-05-25T22:50:09.397Z,77.16
2019-05-25T22:52:41.679Z,77.34
2019-05-25T22:55:14.399Z,77.30
2019-05-25T22:57:45.887Z,77.13
2019-05-25T23:00:20.768Z,76.94
2019-05-25T23:02:53.302Z,77.52
2019-05-25T23:05:25.475Z,77.10
2019-05-25T23:07:57.781Z,76.03
2019-05-25T23:10:29.745Z,76.16
2019-05-25T23:13:02.159Z,76.54
2019-05-25T23:15:34.559Z,75.74
2019-05-25T23:18:06.086Z,74.90
2019-05-25T23:20:38.795Z,74.71
2019-05-25T23:23:10.800Z,73.53
2019-05-25T23:25:43.257Z,73.41
2019-05-25T23:28:15.573Z,72.64
2019-05-25T23:30:47.071Z,71.14
2019-05-25T23:33:19.528Z,71.41
2019-05-25T23:35:51.451Z,71.58
2019-05-25T23:38:23.872Z,73.23
2019-05-25T23:40:55.891Z,73.84
2019-05-25T23:43:27.355Z,73.71
2019-05-25T23:45:59.371Z,73.38
2019-05-25T23:48:31.603Z,73.45
2019-05-25T23:51:03.984Z,73.73
2019-05-25T23:53:36.321Z,73.10
2019-05-25T23:56:07.854Z,73.08
2019-05-25T23:58:40.152Z,72.58
